sensor_id;sensor_type;location;lat;lon;timestamp;temperature;humidity
49821;DHT22;36893;52.520;13.450;2023-02-23T00:07:19;21.50;73.10
49821;DHT22;36893;52.520;13.450;2023-02-23T00:17:20;21.50;73.10
49821;DHT22;36893;52.520;13.450;2023-02-23T00:27:23;21.50;73.10
49821;DHT22;36893;52.520;13.450;2023-02-23T00:37:24;21.50;73.00
49821;DHT22;36893;52.520;13.450;2023-02-23T00:47:25;21.40;73.00
49821;DHT22;36893;52.520;13.450;2023-02-23T00:57:25;21.40;73.00
49821;DHT22;36893;52.520;13.450;2023-02-23T01:07:26;21.40;72.90
49821;DHT22;36893;52.520;13.450;2023-02-23T01:17:27;21.40;72.90
49821;DHT22;36893;52.520;13.450;2023-02-23T01:27:29;21.30;72.80
49821;DHT22;36893;52.520;13.450;2023-02-23T01:37:33;21.30;72.80
49821;DHT22;36893;52.520;13.450;2023-02-23T01:47:39;21.30;72.80
49821;DHT22;36893;52.520;13.450;2023-02-23T01:57:41;21.30;72.80
49821;DHT22;36893;52.520;13.450;2023-02-23T02:07:45;21.30;72.80
49821;DHT22;36893;52.520;13.450;2023-02-23T02:39:06;21.20;72.70
49821;DHT22;36893;52.520;13.450;2023-02-23T02:49:54;21.20;72.80
49821;DHT22;36893;52.520;13.450;2023-02-23T03:00:02;21.20;72.70
49821;DHT22;36893;52.520;13.450;2023-02-23T03:10:27;21.20;72.70
49821;DHT22;36893;52.520;13.450;2023-02-23T03:21:08;21.10;72.60
49821;DHT22;36893;52.520;13.450;2023-02-23T03:32:02;21.10;72.60
49821;DHT22;36893;52.520;13.450;2023-02-23T03:42:30;21.10;72.60
49821;DHT22;36893;52.520;13.450;2023-02-23T03:52:55;21.10;72.60
49821;DHT22;36893;52.520;13.450;2023-02-23T04:03:17;21.10;72.60
49821;DHT22;36893;52.520;13.450;2023-02-23T04:13:39;21.10;72.50
49821;DHT22;36893;52.520;13.450;2023-02-23T04:23:42;21.10;72.40
49821;DHT22;36893;52.520;13.450;2023-02-23T04:33:42;21.00;72.40
49821;DHT22;36893;52.520;13.450;2023-02-23T04:43:43;21.00;72.40
49821;DHT22;36893;52.520;13.450;2023-02-23T04:53:44;21.00;72.40
49821;DHT22;36893;52.520;13.450;2023-02-23T05:03:44;21.00;72.40
49821;DHT22;36893;52.520;13.450;2023-02-23T05:13:45;21.00;72.30
49821;DHT22;36893;52.520;13.450;2023-02-23T05:23:46;21.00;72.30
49821;DHT22;36893;52.520;13.450;2023-02-23T05:33:47;20.90;72.30
49821;DHT22;36893;52.520;13.450;2023-02-23T05:43:49;20.90;72.30
49821;DHT22;36893;52.520;13.450;2023-02-23T05:53:53;20.90;72.30
49821;DHT22;36893;52.520;13.450;2023-02-23T06:03:53;20.90;72.20
49821;DHT22;36893;52.520;13.450;2023-02-23T06:13:57;20.90;72.20
49821;DHT22;36893;52.520;13.450;2023-02-23T06:23:58;20.90;72.30
49821;DHT22;36893;52.520;13.450;2023-02-23T06:34:00;20.90;72.20
49821;DHT22;36893;52.520;13.450;2023-02-23T06:44:00;20.90;72.40
49821;DHT22;36893;52.520;13.450;2023-02-23T06:54:01;20.90;72.60
49821;DHT22;36893;52.520;13.450;2023-02-23T07:04:02;20.90;72.70
49821;DHT22;36893;52.520;13.450;2023-02-23T07:14:02;20.90;72.80
49821;DHT22;36893;52.520;13.450;2023-02-23T07:24:03;20.90;72.80
49821;DHT22;36893;52.520;13.450;2023-02-23T07:34:06;20.90;72.80
49821;DHT22;36893;52.520;13.450;2023-02-23T07:44:07;20.90;72.80
49821;DHT22;36893;52.520;13.450;2023-02-23T07:54:08;20.90;72.70
49821;DHT22;36893;52.520;13.450;2023-02-23T08:04:08;20.90;72.70
49821;DHT22;36893;52.520;13.450;2023-02-23T08:14:09;20.80;72.60
49821;DHT22;36893;52.520;13.450;2023-02-23T08:24:10;20.80;72.60
49821;DHT22;36893;52.520;13.450;2023-02-23T08:34:10;20.80;72.50
49821;DHT22;36893;52.520;13.450;2023-02-23T08:44:11;20.90;72.50
49821;DHT22;36893;52.520;13.450;2023-02-23T08:54:12;20.90;72.40
49821;DHT22;36893;52.520;13.450;2023-02-23T09:04:17;20.90;72.30
49821;DHT22;36893;52.520;13.450;2023-02-23T09:14:17;20.90;72.20
49821;DHT22;36893;52.520;13.450;2023-02-23T09:24:19;20.90;72.20
49821;DHT22;36893;52.520;13.450;2023-02-23T09:34:20;20.90;72.10
49821;DHT22;36893;52.520;13.450;2023-02-23T09:55:16;20.90;72.00
49821;DHT22;36893;52.520;13.450;2023-02-23T10:05:19;20.90;71.90
49821;DHT22;36893;52.520;13.450;2023-02-23T10:15:43;21.00;71.90
49821;DHT22;36893;52.520;13.450;2023-02-23T10:25:48;21.00;71.90
49821;DHT22;36893;52.520;13.450;2023-02-23T10:35:55;21.10;71.90
49821;DHT22;36893;52.520;13.450;2023-02-23T10:45:59;21.10;71.60
49821;DHT22;36893;52.520;13.450;2023-02-23T10:56:14;21.20;71.60
49821;DHT22;36893;52.520;13.450;2023-02-23T11:06:33;21.20;72.40
49821;DHT22;36893;52.520;13.450;2023-02-23T11:16:38;21.20;71.50
49821;DHT22;36893;52.520;13.450;2023-02-23T11:26:42;21.20;71.50
49821;DHT22;36893;52.520;13.450;2023-02-23T11:36:43;21.30;71.50
49821;DHT22;36893;52.520;13.450;2023-02-23T11:46:44;21.30;71.40
49821;DHT22;36893;52.520;13.450;2023-02-23T11:56:47;21.20;71.30
49821;DHT22;36893;52.520;13.450;2023-02-23T12:07:15;21.30;71.40
49821;DHT22;36893;52.520;13.450;2023-02-23T12:17:45;21.30;71.30
49821;DHT22;36893;52.520;13.450;2023-02-23T12:27:59;21.30;72.20
49821;DHT22;36893;52.520;13.450;2023-02-23T12:38:20;21.30;71.30
49821;DHT22;36893;52.520;13.450;2023-02-23T12:48:47;21.30;71.10
49821;DHT22;36893;52.520;13.450;2023-02-23T12:59:36;21.30;71.10
49821;DHT22;36893;52.520;13.450;2023-02-23T13:10:09;21.40;71.20
49821;DHT22;36893;52.520;13.450;2023-02-23T13:30:32;21.30;71.10
49821;DHT22;36893;52.520;13.450;2023-02-23T13:40:57;21.30;70.90
49821;DHT22;36893;52.520;13.450;2023-02-23T13:51:13;21.30;71.00
49821;DHT22;36893;52.520;13.450;2023-02-23T14:01:30;21.30;70.90
49821;DHT22;36893;52.520;13.450;2023-02-23T14:11:45;21.30;70.90
49821;DHT22;36893;52.520;13.450;2023-02-23T14:21:50;21.30;70.90
49821;DHT22;36893;52.520;13.450;2023-02-23T14:32:01;21.20;70.80
49821;DHT22;36893;52.520;13.450;2023-02-23T14:42:25;21.20;70.80
49821;DHT22;36893;52.520;13.450;2023-02-23T14:52:35;21.20;70.80
49821;DHT22;36893;52.520;13.450;2023-02-23T15:12:59;21.10;70.80
49821;DHT22;36893;52.520;13.450;2023-02-23T15:23:02;21.10;70.80
49821;DHT22;36893;52.520;13.450;2023-02-23T15:33:09;21.10;70.80
49821;DHT22;36893;52.520;13.450;2023-02-23T15:43:11;21.00;70.80
49821;DHT22;36893;52.520;13.450;2023-02-23T15:53:32;21.00;70.70
49821;DHT22;36893;52.520;13.450;2023-02-23T16:03:37;21.00;70.80
49821;DHT22;36893;52.520;13.450;2023-02-23T16:13:44;20.90;70.70
49821;DHT22;36893;52.520;13.450;2023-02-23T16:23:48;20.90;70.70
49821;DHT22;36893;52.520;13.450;2023-02-23T16:33:54;20.90;70.70
49821;DHT22;36893;52.520;13.450;2023-02-23T16:43:59;20.90;70.70
49821;DHT22;36893;52.520;13.450;2023-02-23T16:54:02;20.90;70.70
49821;DHT22;36893;52.520;13.450;2023-02-23T17:04:04;20.90;70.80
49821;DHT22;36893;52.520;13.450;2023-02-23T17:14:21;20.90;70.80
49821;DHT22;36893;52.520;13.450;2023-02-23T17:24:23;20.90;70.90
49821;DHT22;36893;52.520;13.450;2023-02-23T17:34:26;20.90;70.90
49821;DHT22;36893;52.520;13.450;2023-02-23T17:44:27;20.90;71.00
49821;DHT22;36893;52.520;13.450;2023-02-23T17:54:28;20.80;71.00
49821;DHT22;36893;52.520;13.450;2023-02-23T18:04:29;20.80;71.00
49821;DHT22;36893;52.520;13.450;2023-02-23T18:14:29;20.80;71.00
49821;DHT22;36893;52.520;13.450;2023-02-23T18:24:30;20.80;71.00
49821;DHT22;36893;52.520;13.450;2023-02-23T18:34:31;20.80;71.10
49821;DHT22;36893;52.520;13.450;2023-02-23T18:44:32;20.80;71.10
49821;DHT22;36893;52.520;13.450;2023-02-23T18:54:33;20.80;71.10
49821;DHT22;36893;52.520;13.450;2023-02-23T19:04:33;20.80;71.10
49821;DHT22;36893;52.520;13.450;2023-02-23T19:14:35;20.80;71.10
49821;DHT22;36893;52.520;13.450;2023-02-23T19:24:36;20.70;71.10
49821;DHT22;36893;52.520;13.450;2023-02-23T19:34:37;20.70;71.10
49821;DHT22;36893;52.520;13.450;2023-02-23T19:44:39;20.70;71.10
49821;DHT22;36893;52.520;13.450;2023-02-23T19:54:41;20.70;71.10
49821;DHT22;36893;52.520;13.450;2023-02-23T20:04:41;20.70;71.10
49821;DHT22;36893;52.520;13.450;2023-02-23T20:14:42;20.70;71.10
49821;DHT22;36893;52.520;13.450;2023-02-23T20:24:44;20.70;71.90
49821;DHT22;36893;52.520;13.450;2023-02-23T20:34:44;20.70;71.10
49821;DHT22;36893;52.520;13.450;2023-02-23T20:44:46;20.70;71.10
49821;DHT22;36893;52.520;13.450;2023-02-23T20:54:47;20.60;71.10
49821;DHT22;36893;52.520;13.450;2023-02-23T21:04:48;20.60;71.10
49821;DHT22;36893;52.520;13.450;2023-02-23T21:14:48;20.60;71.10
49821;DHT22;36893;52.520;13.450;2023-02-23T21:24:49;20.60;71.10
49821;DHT22;36893;52.520;13.450;2023-02-23T21:34:50;20.60;71.10
49821;DHT22;36893;52.520;13.450;2023-02-23T21:44:50;20.60;71.10
49821;DHT22;36893;52.520;13.450;2023-02-23T21:54:52;20.60;71.10
49821;DHT22;36893;52.520;13.450;2023-02-23T22:04:53;20.60;71.10
49821;DHT22;36893;52.520;13.450;2023-02-23T22:14:54;20.60;71.10
49821;DHT22;36893;52.520;13.450;2023-02-23T22:24:54;20.60;71.10
49821;DHT22;36893;52.520;13.450;2023-02-23T22:34:55;20.60;71.10
49821;DHT22;36893;52.520;13.450;2023-02-23T22:44:56;20.60;71.20
49821;DHT22;36893;52.520;13.450;2023-02-23T22:54:56;20.60;71.10
49821;DHT22;36893;52.520;13.450;2023-02-23T23:04:58;20.60;71.10
49821;DHT22;36893;52.520;13.450;2023-02-23T23:14:59;20.50;71.10
49821;DHT22;36893;52.520;13.450;2023-02-23T23:25:00;20.50;71.10
49821;DHT22;36893;52.520;13.450;2023-02-23T23:35:01;20.50;71.10
49821;DHT22;36893;52.520;13.450;2023-02-23T23:45:03;20.50;71.10
49821;DHT22;36893;52.520;13.450;2023-02-23T23:55:10;20.50;71.20
